createdAt,value
2023-01-23T00:01:55.330Z,23.02
2023-01-23T00:04:21.895Z,22.17
2023-01-23T00:06:48.449Z,22.27
2023-01-23T00:09:16.369Z,23.83
2023-01-23T00:11:45.780Z,23.23
2023-01-23T00:14:12.267Z,22.08
2023-01-23T00:16:38.748Z,20.95
2023-01-23T00:19:05.290Z,22.40
2023-01-23T00:21:31.771Z,20.08
2023-01-23T00:23:59.185Z,19.98
2023-01-23T00:26:28.173Z,20.55
2023-01-23T00:28:54.708Z,19.35
2023-01-23T00:31:22.124Z,17.38
2023-01-23T00:33:48.645Z,17.92
2023-01-23T00:36:15.639Z,15.93
2023-01-23T00:38:42.312Z,17.52
2023-01-23T00:41:08.805Z,15.45
2023-01-23T00:43:36.640Z,16.13
2023-01-23T00:46:03.139Z,15.85
2023-01-23T00:48:29.659Z,16.92
2023-01-23T00:50:58.406Z,15.32
2023-01-23T00:53:24.867Z,15.67
2023-01-23T00:55:51.413Z,14.27
2023-01-23T00:58:17.877Z,18.38
2023-01-23T01:00:45.824Z,18.50
2023-01-23T01:03:12.502Z,18.50
2023-01-23T01:05:39.023Z,19.27
2023-01-23T01:08:05.833Z,17.27
2023-01-23T01:10:32.368Z,18.70
2023-01-23T01:12:59.840Z,15.50
2023-01-23T01:15:26.989Z,17.00
2023-01-23T01:17:54.950Z,20.65
2023-01-23T01:20:22.007Z,16.85
2023-01-23T01:22:48.685Z,16.13
2023-01-23T01:25:15.178Z,16.35
2023-01-23T01:27:41.664Z,14.00
2023-01-23T01:30:08.687Z,11.52
2023-01-23T01:32:36.519Z,9.65
2023-01-23T01:35:04.814Z,9.80
2023-01-23T01:37:32.795Z,9.02
2023-01-23T01:39:59.301Z,10.23
2023-01-23T01:42:25.744Z,8.20
2023-01-23T01:44:53.595Z,7.50
2023-01-23T01:47:20.043Z,7.38
2023-01-23T01:49:46.806Z,8.20
2023-01-23T01:52:14.843Z,6.78
2023-01-23T01:54:42.736Z,7.93
2023-01-23T01:57:11.808Z,7.82
2023-01-23T01:59:40.105Z,11.68
2023-01-23T02:02:09.497Z,8.38
2023-01-23T02:04:36.794Z,8.25
2023-01-23T02:07:05.427Z,7.32
2023-01-23T02:09:33.465Z,10.07
2023-01-23T02:12:00.287Z,10.07
2023-01-23T02:14:26.731Z,10.68
2023-01-23T02:16:53.324Z,8.00
2023-01-23T02:19:37.157Z,9.50
2023-01-23T02:22:08.601Z,6.70
2023-01-23T02:24:38.943Z,7.00
2023-01-23T02:27:06.908Z,6.18
2023-01-23T02:29:40.154Z,6.78
2023-01-23T02:32:06.745Z,7.13
2023-01-23T02:34:33.274Z,6.93
2023-01-23T02:36:59.840Z,7.32
2023-01-23T02:39:26.339Z,3.40
2023-01-23T02:41:53.706Z,4.97
2023-01-23T02:44:22.863Z,3.10
2023-01-23T02:46:49.373Z,2.35
2023-01-23T02:49:15.862Z,2.95
2023-01-23T02:51:42.310Z,3.65
2023-01-23T02:54:08.775Z,2.65
2023-01-23T02:56:35.287Z,2.90
2023-01-23T02:59:01.766Z,2.80
2023-01-23T03:01:29.882Z,3.00
2023-01-23T03:03:56.419Z,7.60
2023-01-23T03:06:23.064Z,10.00
2023-01-23T03:08:50.766Z,10.00
2023-01-23T03:11:18.331Z,9.65
2023-01-23T03:13:45.045Z,7.40
2023-01-23T03:16:11.583Z,6.72
2023-01-23T03:18:52.947Z,4.68
2023-01-23T03:21:20.913Z,4.88
2023-01-23T03:23:47.358Z,6.55
2023-01-23T03:26:14.204Z,5.97
2023-01-23T03:28:40.847Z,4.50
2023-01-23T03:31:07.380Z,7.43
2023-01-23T03:33:33.906Z,5.63
2023-01-23T03:36:01.767Z,5.15
2023-01-23T03:38:28.201Z,4.78
2023-01-23T03:40:54.738Z,4.55
2023-01-23T03:43:21.284Z,4.22
2023-01-23T03:45:47.865Z,4.28
2023-01-23T03:48:14.409Z,4.97
2023-01-23T03:50:42.348Z,4.68
2023-01-23T03:53:10.296Z,4.05
2023-01-23T03:55:36.743Z,4.00
2023-01-23T03:58:03.254Z,3.40
2023-01-23T04:00:29.793Z,5.35
2023-01-23T04:02:56.254Z,3.95
2023-01-23T04:05:22.811Z,5.07
2023-01-23T04:07:49.374Z,6.78
2023-01-23T04:10:17.649Z,3.67
2023-01-23T04:12:44.224Z,4.15
2023-01-23T04:15:11.359Z,4.30
2023-01-23T04:17:38.820Z,2.70
2023-01-23T04:20:06.706Z,3.42
2023-01-23T04:22:33.225Z,3.08
2023-01-23T04:24:59.761Z,3.22
2023-01-23T04:27:27.953Z,3.15
2023-01-23T04:29:57.275Z,3.00
2023-01-23T04:32:24.088Z,2.95
2023-01-23T04:34:50.624Z,3.40
2023-01-23T04:37:17.202Z,3.65
2023-01-23T04:39:43.833Z,4.13
2023-01-23T04:42:10.370Z,4.25
2023-01-23T04:44:38.294Z,3.90
2023-01-23T04:47:04.828Z,5.63
2023-01-23T04:49:31.299Z,5.45
2023-01-23T04:51:57.832Z,4.80
2023-01-23T04:54:24.343Z,4.70
2023-01-23T04:56:50.786Z,5.05
2023-01-23T04:59:17.281Z,4.78
2023-01-23T05:01:45.182Z,5.57
2023-01-23T05:04:11.732Z,5.13
2023-01-23T05:06:38.213Z,6.25
2023-01-23T05:09:04.784Z,4.95
2023-01-23T05:11:31.316Z,6.72
2023-01-23T05:13:57.708Z,4.80
2023-01-23T05:16:24.246Z,5.18
2023-01-23T05:18:52.110Z,5.10
2023-01-23T05:21:18.595Z,5.03
2023-01-23T05:23:45.127Z,6.75
2023-01-23T05:26:11.672Z,4.70
2023-01-23T05:28:38.163Z,5.10
2023-01-23T05:31:04.875Z,6.45
2023-01-23T05:33:31.482Z,5.32
2023-01-23T05:36:00.321Z,6.75
2023-01-23T05:38:26.938Z,6.07
2023-01-23T05:40:53.391Z,6.55
2023-01-23T05:43:19.880Z,5.55
2023-01-23T05:45:46.331Z,11.43
2023-01-23T05:48:12.854Z,7.03
2023-01-23T05:50:40.009Z,7.65
2023-01-23T05:53:07.985Z,6.82
2023-01-23T05:55:34.710Z,6.38
2023-01-23T05:58:01.266Z,7.32
2023-01-23T06:00:27.698Z,7.65
2023-01-23T06:02:54.341Z,7.97
2023-01-23T06:05:20.824Z,11.07
2023-01-23T06:07:47.390Z,7.95
2023-01-23T06:10:15.161Z,7.85
2023-01-23T06:12:43.145Z,8.30
2023-01-23T06:15:10.077Z,9.32
2023-01-23T06:17:36.645Z,8.50
2023-01-23T06:20:03.904Z,9.43
2023-01-23T06:22:31.542Z,9.32
2023-01-23T06:24:58.172Z,8.75
2023-01-23T06:27:24.903Z,9.13
2023-01-23T06:29:52.769Z,12.23
2023-01-23T06:32:19.306Z,10.35
2023-01-23T06:34:45.782Z,10.70
2023-01-23T06:37:12.309Z,10.75
2023-01-23T06:39:38.924Z,11.77
2023-01-23T06:42:05.452Z,11.43
2023-01-23T06:44:32.015Z,12.27
2023-01-23T06:46:59.992Z,9.57
2023-01-23T06:49:26.488Z,11.88
2023-01-23T06:51:53.030Z,11.07
2023-01-23T06:54:19.494Z,11.57
2023-01-23T06:56:46.010Z,10.88
2023-01-23T06:59:12.468Z,11.60
2023-01-23T07:01:39.622Z,11.30
2023-01-23T07:04:07.589Z,12.48
2023-01-23T07:06:33.998Z,11.63
2023-01-23T07:09:00.553Z,9.65
2023-01-23T07:11:26.970Z,10.73
2023-01-23T07:13:53.599Z,13.27
2023-01-23T07:16:20.463Z,8.93
2023-01-23T07:18:46.991Z,10.15
2023-01-23T07:21:14.915Z,10.90
2023-01-23T07:23:41.338Z,10.02
2023-01-23T07:26:07.846Z,9.00
2023-01-23T07:28:34.359Z,8.35
2023-01-23T07:31:00.845Z,7.80
2023-01-23T07:33:28.084Z,7.65
2023-01-23T07:35:54.706Z,9.15
2023-01-23T07:38:22.582Z,7.82
2023-01-23T07:40:49.245Z,8.38
2023-01-23T07:43:15.733Z,9.20
2023-01-23T07:45:42.348Z,8.63
2023-01-23T07:48:08.900Z,10.60
2023-01-23T07:50:35.689Z,9.00
2023-01-23T07:53:02.242Z,8.43
2023-01-23T07:55:30.275Z,9.02
2023-01-23T07:57:57.226Z,8.85
2023-01-23T08:00:25.247Z,7.80
2023-01-23T08:02:53.682Z,8.30
2023-01-23T08:05:20.221Z,7.72
2023-01-23T08:07:47.747Z,8.13
2023-01-23T08:10:14.267Z,9.95
2023-01-23T08:12:42.182Z,9.20
2023-01-23T08:15:09.190Z,8.25
2023-01-23T08:17:35.939Z,7.97
2023-01-23T08:20:02.870Z,8.45
2023-01-23T08:22:29.406Z,8.82
2023-01-23T08:24:55.915Z,8.80
2023-01-23T08:27:22.504Z,8.10
2023-01-23T08:29:50.565Z,8.48
2023-01-23T08:32:17.203Z,6.80
2023-01-23T08:34:43.797Z,7.47
2023-01-23T08:37:10.368Z,7.25
2023-01-23T08:39:36.952Z,7.95
2023-01-23T08:42:03.653Z,8.73
2023-01-23T08:44:30.206Z,7.28
2023-01-23T08:46:58.295Z,7.50
2023-01-23T08:49:25.020Z,7.35
2023-01-23T08:51:51.637Z,9.00
2023-01-23T08:54:19.235Z,7.85
2023-01-23T08:56:45.811Z,11.02
2023-01-23T08:59:12.792Z,7.78
2023-01-23T09:01:42.867Z,6.85
2023-01-23T09:04:10.892Z,8.13
2023-01-23T09:06:37.449Z,10.57
2023-01-23T09:09:03.963Z,10.32
2023-01-23T09:11:30.512Z,9.30
2023-01-23T09:13:57.133Z,7.15
2023-01-23T09:16:23.712Z,7.25
2023-01-23T09:18:51.418Z,8.20
2023-01-23T09:21:22.704Z,11.05
2023-01-23T09:23:49.299Z,8.30
2023-01-23T09:26:24.024Z,6.85
2023-01-23T09:28:50.692Z,6.13
2023-01-23T09:31:17.258Z,6.82
2023-01-23T09:33:50.248Z,7.90
2023-01-23T09:36:16.974Z,5.60
2023-01-23T09:38:52.392Z,7.80
2023-01-23T09:41:20.375Z,6.40
2023-01-23T09:43:51.300Z,5.78
2023-01-23T09:46:24.093Z,5.70
2023-01-23T09:48:54.027Z,7.30
2023-01-23T09:51:23.228Z,6.20
2023-01-23T09:53:53.012Z,5.60
2023-01-23T09:56:29.366Z,6.07
2023-01-23T09:58:59.389Z,5.82
2023-01-23T10:01:27.314Z,6.57
2023-01-23T10:03:53.829Z,7.57
2023-01-23T10:06:22.499Z,6.00
2023-01-23T10:09:00.501Z,6.47
2023-01-23T10:11:30.615Z,5.35
2023-01-23T10:14:03.532Z,5.32
2023-01-23T10:16:50.094Z,5.03
2023-01-23T10:19:22.884Z,5.40
2023-01-23T10:21:51.888Z,5.85
2023-01-23T10:24:35.806Z,7.55
2023-01-23T10:27:13.809Z,5.47
2023-01-23T10:29:43.837Z,4.50
2023-01-23T10:32:17.877Z,4.82
2023-01-23T10:34:47.928Z,5.22
2023-01-23T10:37:18.388Z,4.85
2023-01-23T10:39:49.126Z,4.53
2023-01-23T10:42:16.923Z,4.70
2023-01-23T10:44:43.486Z,4.28
2023-01-23T10:47:15.715Z,7.10
2023-01-23T10:49:44.231Z,4.90
2023-01-23T10:52:28.126Z,4.90
2023-01-23T10:54:56.201Z,4.43
2023-01-23T10:57:24.294Z,4.40
2023-01-23T10:59:53.888Z,4.55
2023-01-23T11:04:48.477Z,4.25
2023-01-23T11:07:16.504Z,4.30
2023-01-23T11:09:50.895Z,4.65
2023-01-23T11:12:20.488Z,4.43
2023-01-23T11:17:15.711Z,3.63
2023-01-23T11:19:43.175Z,4.20
2023-01-23T11:22:23.740Z,5.45
2023-01-23T11:24:50.324Z,3.65
2023-01-23T11:27:25.541Z,3.90
2023-01-23T11:30:06.884Z,4.22
2023-01-23T11:32:42.159Z,6.00
2023-01-23T11:35:11.906Z,3.50
2023-01-23T11:37:40.063Z,4.30
2023-01-23T11:40:12.508Z,3.75
2023-01-23T11:42:43.243Z,4.30
2023-01-23T11:45:13.072Z,4.15
2023-01-23T11:47:45.845Z,5.57
2023-01-23T11:50:34.239Z,3.63
2023-01-23T11:53:05.033Z,4.57
2023-01-23T11:58:30.717Z,3.90
2023-01-23T12:01:02.950Z,4.05
2023-01-23T12:03:45.172Z,4.00
2023-01-23T12:06:38.606Z,4.13
2023-01-23T12:09:09.643Z,4.45
2023-01-23T12:11:49.071Z,4.53
2023-01-23T12:14:26.077Z,4.18
2023-01-23T12:17:07.791Z,4.13
2023-01-23T12:19:52.423Z,4.78
2023-01-23T12:22:26.105Z,3.97
2023-01-23T12:24:59.824Z,4.10
2023-01-23T12:27:30.150Z,4.20
2023-01-23T12:30:20.986Z,4.28
2023-01-23T12:33:01.621Z,3.97
2023-01-23T12:35:35.530Z,4.60
2023-01-23T12:38:09.758Z,5.32
2023-01-23T12:40:38.773Z,4.68
2023-01-23T12:45:33.020Z,3.85
2023-01-23T12:48:04.782Z,6.88
2023-01-23T12:50:36.852Z,4.15
2023-01-23T12:53:17.943Z,4.00
2023-01-23T12:55:59.315Z,4.15
2023-01-23T13:04:28.674Z,4.88
2023-01-23T13:07:14.854Z,4.25
2023-01-23T13:10:09.883Z,4.28
2023-01-23T13:12:38.407Z,5.05
2023-01-23T13:15:40.480Z,4.10
2023-01-23T13:18:19.552Z,4.03
2023-01-23T13:21:01.122Z,4.00
2023-01-23T13:23:43.750Z,4.00
2023-01-23T13:26:35.070Z,4.43
2023-01-23T13:29:25.696Z,3.95
2023-01-23T13:32:19.705Z,4.45
2023-01-23T13:35:10.781Z,5.57
2023-01-23T13:38:00.552Z,4.28
2023-01-23T13:40:34.806Z,4.43
2023-01-23T13:43:28.125Z,5.00
2023-01-23T13:45:57.142Z,3.83
2023-01-23T14:44:22.000Z,3.88
2023-01-23T15:06:28.464Z,7.38
2023-01-23T15:23:13.863Z,4.15
2023-01-23T15:35:58.294Z,5.40
2023-01-23T15:41:52.551Z,6.03
2023-01-23T15:44:55.211Z,4.18
2023-01-23T15:53:50.753Z,4.75
2023-01-23T23:08:16.920Z,4.40
2023-01-23T23:10:43.734Z,4.75
2023-01-23T23:13:10.868Z,4.50
2023-01-23T23:15:37.712Z,4.97
2023-01-23T23:18:04.669Z,4.47
2023-01-23T23:20:31.509Z,4.55
2023-01-23T23:22:58.989Z,4.13
2023-01-23T23:25:27.434Z,4.63
2023-01-23T23:27:54.255Z,4.68
2023-01-23T23:30:21.159Z,4.85
2023-01-23T23:32:47.987Z,4.53
2023-01-23T23:35:14.916Z,5.10
2023-01-23T23:37:41.765Z,4.63
2023-01-23T23:40:09.844Z,4.72
2023-01-23T23:42:38.162Z,4.90
2023-01-23T23:45:06.084Z,5.43
2023-01-23T23:47:32.922Z,4.97
2023-01-23T23:49:59.781Z,4.88
2023-01-23T23:52:26.523Z,4.93
2023-01-23T23:54:53.358Z,4.40
2023-01-23T23:57:20.195Z,4.85
2023-01-23T23:59:48.606Z,4.78
